sensor_id;sensor_type;location;lat;lon;timestamp;pressure;altitude;pressure_sealevel;temperature;humidity
64713;BME280;51140;45.340;5.980;2023-02-20T00:01:13;99326.19;;;7.82;100.00
64713;BME280;51140;45.340;5.980;2023-02-20T00:03:39;99292.44;;;7.84;100.00
64713;BME280;51140;45.340;5.980;2023-02-20T00:06:04;99302.06;;;7.79;100.00
64713;BME280;51140;45.340;5.980;2023-02-20T00:08:30;99290.81;;;7.80;100.00
64713;BME280;51140;45.340;5.980;2023-02-20T00:10:55;99288.03;;;7.88;100.00
64713;BME280;51140;45.340;5.980;2023-02-20T00:13:20;99284.59;;;7.87;100.00
64713;BME280;51140;45.340;5.980;2023-02-20T00:15:46;99292.34;;;7.89;100.00
64713;BME280;51140;45.340;5.980;2023-02-20T00:18:11;99288.88;;;7.88;100.00
64713;BME280;51140;45.340;5.980;2023-02-20T00:20:37;99303.59;;;7.88;100.00
64713;BME280;51140;45.340;5.980;2023-02-20T00:23:02;99309.63;;;7.88;100.00
64713;BME280;51140;45.340;5.980;2023-02-20T00:25:28;99320.09;;;7.85;100.00
64713;BME280;51140;45.340;5.980;2023-02-20T00:27:53;99345.50;;;7.69;100.00
64713;BME280;51140;45.340;5.980;2023-02-20T00:30:20;99356.81;;;7.67;100.00
64713;BME280;51140;45.340;5.980;2023-02-20T00:32:49;99356.22;;;7.52;100.00
64713;BME280;51140;45.340;5.980;2023-02-20T00:35:15;99361.66;;;7.40;100.00
64713;BME280;51140;45.340;5.980;2023-02-20T00:37:40;99367.13;;;7.25;100.00
64713;BME280;51140;45.340;5.980;2023-02-20T00:40:07;99368.09;;;7.21;100.00
64713;BME280;51140;45.340;5.980;2023-02-20T00:42:32;99381.94;;;7.17;100.00
64713;BME280;51140;45.340;5.980;2023-02-20T00:44:58;99387.03;;;7.23;100.00
64713;BME280;51140;45.340;5.980;2023-02-20T00:47:24;99389.50;;;7.31;100.00
64713;BME280;51140;45.340;5.980;2023-02-20T00:49:49;99388.41;;;7.42;100.00
64713;BME280;51140;45.340;5.980;2023-02-20T00:52:15;99361.63;;;7.42;100.00
64713;BME280;51140;45.340;5.980;2023-02-20T00:54:40;99369.44;;;7.39;100.00
64713;BME280;51140;45.340;5.980;2023-02-20T00:57:06;99378.00;;;7.44;100.00
64713;BME280;51140;45.340;5.980;2023-02-20T00:59:31;99379.66;;;7.46;100.00
64713;BME280;51140;45.340;5.980;2023-02-20T01:01:57;99380.50;;;7.48;100.00
64713;BME280;51140;45.340;5.980;2023-02-20T01:04:22;99377.88;;;7.50;100.00
64713;BME280;51140;45.340;5.980;2023-02-20T01:06:48;99376.16;;;7.49;100.00
64713;BME280;51140;45.340;5.980;2023-02-20T01:09:13;99380.41;;;7.53;100.00
64713;BME280;51140;45.340;5.980;2023-02-20T01:11:41;99398.66;;;7.47;100.00
64713;BME280;51140;45.340;5.980;2023-02-20T01:14:06;99399.63;;;7.43;100.00
64713;BME280;51140;45.340;5.980;2023-02-20T01:16:32;99396.13;;;7.44;100.00
64713;BME280;51140;45.340;5.980;2023-02-20T01:18:57;99396.06;;;7.48;100.00
64713;BME280;51140;45.340;5.980;2023-02-20T01:21:23;99385.63;;;7.51;100.00
64713;BME280;51140;45.340;5.980;2023-02-20T01:23:48;99376.06;;;7.53;100.00
64713;BME280;51140;45.340;5.980;2023-02-20T01:26:13;99363.06;;;7.55;100.00
64713;BME280;51140;45.340;5.980;2023-02-20T01:28:43;99366.56;;;7.54;100.00
64713;BME280;51140;45.340;5.980;2023-02-20T01:31:09;99368.19;;;7.58;100.00
64713;BME280;51140;45.340;5.980;2023-02-20T01:33:34;99365.63;;;7.57;100.00
64713;BME280;51140;45.340;5.980;2023-02-20T01:35:59;99370.88;;;7.53;100.00
64713;BME280;51140;45.340;5.980;2023-02-20T01:38:25;99377.81;;;7.53;100.00
64713;BME280;51140;45.340;5.980;2023-02-20T01:40:50;99377.03;;;7.48;100.00
64713;BME280;51140;45.340;5.980;2023-02-20T01:43:16;99378.88;;;7.43;100.00
64713;BME280;51140;45.340;5.980;2023-02-20T01:45:42;99384.97;;;7.40;100.00
64713;BME280;51140;45.340;5.980;2023-02-20T01:48:24;99394.53;;;7.38;100.00
64713;BME280;51140;45.340;5.980;2023-02-20T01:50:57;99384.97;;;7.40;100.00
64713;BME280;51140;45.340;5.980;2023-02-20T01:53:26;99391.00;;;7.42;100.00
64713;BME280;51140;45.340;5.980;2023-02-20T01:55:58;99386.75;;;7.38;100.00
64713;BME280;51140;45.340;5.980;2023-02-20T01:58:28;99390.25;;;7.36;100.00
64713;BME280;51140;45.340;5.980;2023-02-20T02:00:56;99390.19;;;7.39;100.00
64713;BME280;51140;45.340;5.980;2023-02-20T02:03:28;99380.66;;;7.41;100.00
64713;BME280;51140;45.340;5.980;2023-02-20T02:06:02;99393.69;;;7.36;100.00
64713;BME280;51140;45.340;5.980;2023-02-20T02:08:29;99405.00;;;7.32;100.00
64713;BME280;51140;45.340;5.980;2023-02-20T02:13:26;99429.31;;;7.27;100.00
64713;BME280;51140;45.340;5.980;2023-02-20T02:15:53;99430.06;;;7.33;100.00
64713;BME280;51140;45.340;5.980;2023-02-20T02:21:12;99425.66;;;7.37;100.00
64713;BME280;51140;45.340;5.980;2023-02-20T02:29:40;99407.81;;;7.21;100.00
64713;BME280;51140;45.340;5.980;2023-02-20T02:40:40;99402.78;;;7.11;100.00
64713;BME280;51140;45.340;5.980;2023-02-20T02:43:28;99396.75;;;7.10;100.00
64713;BME280;51140;45.340;5.980;2023-02-20T02:46:13;99399.25;;;7.15;100.00
64713;BME280;51140;45.340;5.980;2023-02-20T02:49:10;99407.84;;;7.17;100.00
64713;BME280;51140;45.340;5.980;2023-02-20T02:51:40;99410.50;;;7.14;100.00
64713;BME280;51140;45.340;5.980;2023-02-20T02:54:12;99418.22;;;7.17;100.00
64713;BME280;51140;45.340;5.980;2023-02-20T02:56:40;99419.06;;;7.19;100.00
64713;BME280;51140;45.340;5.980;2023-02-20T02:59:09;99415.63;;;7.17;100.00
64713;BME280;51140;45.340;5.980;2023-02-20T03:01:40;99401.84;;;7.15;100.00
64713;BME280;51140;45.340;5.980;2023-02-20T03:04:09;99402.78;;;7.11;100.00
64713;BME280;51140;45.340;5.980;2023-02-20T03:06:38;99408.91;;;7.07;100.00
64713;BME280;51140;45.340;5.980;2023-02-20T03:09:11;99409.00;;;7.02;100.00
64713;BME280;51140;45.340;5.980;2023-02-20T03:11:39;99419.50;;;6.95;100.00
64713;BME280;51140;45.340;5.980;2023-02-20T03:19:57;99414.44;;;6.87;100.00
64713;BME280;51140;45.340;5.980;2023-02-20T03:22:31;99415.56;;;6.71;100.00
64713;BME280;51140;45.340;5.980;2023-02-20T03:30:46;99444.31;;;6.54;100.00
64713;BME280;51140;45.340;5.980;2023-02-20T03:36:22;99447.97;;;6.38;100.00
64713;BME280;51140;45.340;5.980;2023-02-20T03:39:13;99461.03;;;6.28;100.00
64713;BME280;51140;45.340;5.980;2023-02-20T03:41:59;99475.06;;;6.12;100.00
64713;BME280;51140;45.340;5.980;2023-02-20T03:44:44;99488.91;;;6.08;100.00
64713;BME280;51140;45.340;5.980;2023-02-20T03:47:13;99504.50;;;6.04;100.00
64713;BME280;51140;45.340;5.980;2023-02-20T03:49:42;99508.81;;;6.02;100.00
64713;BME280;51140;45.340;5.980;2023-02-20T03:52:09;99520.97;;;5.93;100.00
64713;BME280;51140;45.340;5.980;2023-02-20T03:54:35;99531.34;;;5.90;100.00
64713;BME280;51140;45.340;5.980;2023-02-20T03:57:06;99537.38;;;5.89;100.00
64713;BME280;51140;45.340;5.980;2023-02-20T03:59:48;99539.16;;;5.83;100.00
64713;BME280;51140;45.340;5.980;2023-02-20T04:02:33;99559.88;;;5.78;100.00
64713;BME280;51140;45.340;5.980;2023-02-20T04:05:03;99556.44;;;5.78;100.00
64713;BME280;51140;45.340;5.980;2023-02-20T04:07:35;99568.56;;;5.74;100.00
64713;BME280;51140;45.340;5.980;2023-02-20T04:10:03;99569.41;;;5.76;100.00
64713;BME280;51140;45.340;5.980;2023-02-20T04:12:37;99569.34;;;5.81;100.00
64713;BME280;51140;45.340;5.980;2023-02-20T04:15:06;99567.59;;;5.83;100.00
64713;BME280;51140;45.340;5.980;2023-02-20T04:17:45;99565.88;;;5.82;100.00
64713;BME280;51140;45.340;5.980;2023-02-20T04:20:12;99561.59;;;5.79;100.00
64713;BME280;51140;45.340;5.980;2023-02-20T04:22:41;99577.16;;;5.76;100.00
64713;BME280;51140;45.340;5.980;2023-02-20T04:25:29;99565.09;;;5.74;100.00
64713;BME280;51140;45.340;5.980;2023-02-20T04:28:00;99572.00;;;5.75;100.00
64713;BME280;51140;45.340;5.980;2023-02-20T04:30:26;99576.31;;;5.74;100.00
64713;BME280;51140;45.340;5.980;2023-02-20T04:32:51;99571.16;;;5.71;100.00
64713;BME280;51140;45.340;5.980;2023-02-20T04:35:19;99565.19;;;5.64;100.00
64713;BME280;51140;45.340;5.980;2023-02-20T04:37:44;99563.53;;;5.60;100.00
64713;BME280;51140;45.340;5.980;2023-02-20T04:40:11;99557.47;;;5.58;100.00
64713;BME280;51140;45.340;5.980;2023-02-20T04:42:37;99548.97;;;5.49;100.00
64713;BME280;51140;45.340;5.980;2023-02-20T04:45:03;99561.06;;;5.44;100.00
64713;BME280;51140;45.340;5.980;2023-02-20T04:47:29;99568.00;;;5.39;100.00
64713;BME280;51140;45.340;5.980;2023-02-20T04:49:54;99583.50;;;5.39;100.00
64713;BME280;51140;45.340;5.980;2023-02-20T04:52:19;99586.13;;;5.34;100.00
64713;BME280;51140;45.340;5.980;2023-02-20T04:54:45;99586.16;;;5.31;100.00
64713;BME280;51140;45.340;5.980;2023-02-20T04:57:11;99583.63;;;5.25;100.00
64713;BME280;51140;45.340;5.980;2023-02-20T04:59:36;99586.25;;;5.16;100.00
64713;BME280;51140;45.340;5.980;2023-02-20T05:02:02;99594.00;;;5.16;100.00
64713;BME280;51140;45.340;5.980;2023-02-20T05:04:27;99602.63;;;5.13;100.00
64713;BME280;51140;45.340;5.980;2023-02-20T05:06:54;99597.53;;;5.01;100.00
64713;BME280;51140;45.340;5.980;2023-02-20T05:09:20;99601.03;;;4.95;100.00
64713;BME280;51140;45.340;5.980;2023-02-20T05:11:46;99599.34;;;4.90;100.00
64713;BME280;51140;45.340;5.980;2023-02-20T05:14:12;99601.06;;;4.88;100.00
64713;BME280;51140;45.340;5.980;2023-02-20T05:16:38;99614.00;;;4.86;100.00
64713;BME280;51140;45.340;5.980;2023-02-20T05:19:05;99620.91;;;4.83;100.00
64713;BME280;51140;45.340;5.980;2023-02-20T05:21:30;99630.34;;;4.84;100.00
64713;BME280;51140;45.340;5.980;2023-02-20T05:24:14;99631.22;;;4.83;100.00
64713;BME280;51140;45.340;5.980;2023-02-20T05:26:40;99643.28;;;4.82;100.00
64713;BME280;51140;45.340;5.980;2023-02-20T05:29:06;99661.31;;;4.91;100.00
64713;BME280;51140;45.340;5.980;2023-02-20T05:31:34;99674.19;;;4.97;100.00
64713;BME280;51140;45.340;5.980;2023-02-20T05:33:59;99678.47;;;4.97;100.00
64713;BME280;51140;45.340;5.980;2023-02-20T05:36:25;99682.78;;;4.96;100.00
64713;BME280;51140;45.340;5.980;2023-02-20T05:38:50;99687.06;;;5.02;100.00
64713;BME280;51140;45.340;5.980;2023-02-20T05:41:15;99681.00;;;5.06;100.00
64713;BME280;51140;45.340;5.980;2023-02-20T05:43:41;99675.84;;;5.08;100.00
64713;BME280;51140;45.340;5.980;2023-02-20T05:46:06;99668.94;;;5.10;100.00
64713;BME280;51140;45.340;5.980;2023-02-20T05:48:32;99669.78;;;5.12;100.00
64713;BME280;51140;45.340;5.980;2023-02-20T05:50:57;99655.16;;;5.11;100.00
64713;BME280;51140;45.340;5.980;2023-02-20T05:53:23;99658.59;;;5.10;100.00
64713;BME280;51140;45.340;5.980;2023-02-20T05:55:48;99656.91;;;5.09;100.00
64713;BME280;51140;45.340;5.980;2023-02-20T05:58:13;99647.44;;;5.06;100.00
64713;BME280;51140;45.340;5.980;2023-02-20T06:00:39;99638.00;;;5.02;100.00
64713;BME280;51140;45.340;5.980;2023-02-20T06:03:06;99642.31;;;5.01;100.00
64713;BME280;51140;45.340;5.980;2023-02-20T06:05:31;99629.38;;;5.01;100.00
64713;BME280;51140;45.340;5.980;2023-02-20T06:07:57;99638.00;;;4.99;100.00
64713;BME280;51140;45.340;5.980;2023-02-20T06:10:22;99634.59;;;4.92;100.00
64713;BME280;51140;45.340;5.980;2023-02-20T06:12:48;99629.47;;;4.88;100.00
64713;BME280;51140;45.340;5.980;2023-02-20T06:15:13;99629.47;;;4.88;100.00
64713;BME280;51140;45.340;5.980;2023-02-20T06:17:39;99632.06;;;4.80;100.00
64713;BME280;51140;45.340;5.980;2023-02-20T06:20:04;99631.22;;;4.81;100.00
64713;BME280;51140;45.340;5.980;2023-02-20T06:22:30;99632.94;;;4.79;100.00
64713;BME280;51140;45.340;5.980;2023-02-20T06:24:55;99632.94;;;4.76;100.00
64713;BME280;51140;45.340;5.980;2023-02-20T06:27:20;99647.59;;;4.76;100.00
64713;BME280;51140;45.340;5.980;2023-02-20T06:29:46;99648.47;;;4.67;100.00
64713;BME280;51140;45.340;5.980;2023-02-20T06:32:12;99654.50;;;4.66;100.00
64713;BME280;51140;45.340;5.980;2023-02-20T06:34:37;99658.81;;;4.62;100.00
64713;BME280;51140;45.340;5.980;2023-02-20T06:37:03;99662.28;;;4.63;100.00
64713;BME280;51140;45.340;5.980;2023-02-20T06:39:30;99673.44;;;4.63;100.00
64713;BME280;51140;45.340;5.980;2023-02-20T06:41:56;99676.91;;;4.61;100.00
64713;BME280;51140;45.340;5.980;2023-02-20T06:44:21;99688.09;;;4.60;100.00
64713;BME280;51140;45.340;5.980;2023-02-20T06:46:47;99701.00;;;4.57;100.00
64713;BME280;51140;45.340;5.980;2023-02-20T06:49:13;99707.03;;;4.53;100.00
64713;BME280;51140;45.340;5.980;2023-02-20T06:51:39;99724.25;;;4.48;100.00
64713;BME280;51140;45.340;5.980;2023-02-20T06:54:05;99744.03;;;4.47;100.00
64713;BME280;51140;45.340;5.980;2023-02-20T06:56:32;99744.91;;;4.48;100.00
64713;BME280;51140;45.340;5.980;2023-02-20T06:58:59;99749.19;;;4.52;100.00
64713;BME280;51140;45.340;5.980;2023-02-20T07:01:27;99747.47;;;4.48;100.00
64713;BME280;51140;45.340;5.980;2023-02-20T07:03:53;99748.34;;;4.40;100.00
64713;BME280;51140;45.340;5.980;2023-02-20T07:06:20;99757.81;;;4.32;100.00
64713;BME280;51140;45.340;5.980;2023-02-20T07:08:46;99760.38;;;4.28;100.00
64713;BME280;51140;45.340;5.980;2023-02-20T07:11:12;99766.41;;;4.31;100.00
64713;BME280;51140;45.340;5.980;2023-02-20T07:13:37;99767.28;;;4.24;100.00
64713;BME280;51140;45.340;5.980;2023-02-20T07:16:03;99775.88;;;4.20;100.00
64713;BME280;51140;45.340;5.980;2023-02-20T07:18:28;99771.56;;;4.16;100.00
64713;BME280;51140;45.340;5.980;2023-02-20T07:20:54;99780.16;;;4.23;100.00
64713;BME280;51140;45.340;5.980;2023-02-20T07:23:20;99772.44;;;4.21;100.00
64713;BME280;51140;45.340;5.980;2023-02-20T07:25:46;99771.56;;;4.27;100.00
64713;BME280;51140;45.340;5.980;2023-02-20T07:28:12;99765.56;;;4.17;100.00
64713;BME280;51140;45.340;5.980;2023-02-20T07:30:38;99759.53;;;4.20;100.00
64713;BME280;51140;45.340;5.980;2023-02-20T07:33:03;99760.41;;;4.13;100.00
64713;BME280;51140;45.340;5.980;2023-02-20T07:35:29;99765.56;;;4.20;100.00
64713;BME280;51140;45.340;5.980;2023-02-20T07:37:54;99771.56;;;4.28;100.00
64713;BME280;51140;45.340;5.980;2023-02-20T07:40:19;99766.38;;;4.37;100.00
64713;BME280;51140;45.340;5.980;2023-02-20T07:42:45;99765.53;;;4.26;100.00
64713;BME280;51140;45.340;5.980;2023-02-20T07:45:10;99772.41;;;4.32;100.00
64713;BME280;51140;45.340;5.980;2023-02-20T07:47:36;99774.97;;;4.39;100.00
64713;BME280;51140;45.340;5.980;2023-02-20T07:50:01;99769.84;;;4.49;100.00
64713;BME280;51140;45.340;5.980;2023-02-20T07:52:27;99756.09;;;4.45;100.00
64713;BME280;51140;45.340;5.980;2023-02-20T07:54:52;99763.81;;;4.47;100.00
64713;BME280;51140;45.340;5.980;2023-02-20T07:57:17;99753.47;;;4.59;100.00
64713;BME280;51140;45.340;5.980;2023-02-20T07:59:43;99753.47;;;4.65;100.00
64713;BME280;51140;45.340;5.980;2023-02-20T08:02:08;99740.56;;;4.60;100.00
64713;BME280;51140;45.340;5.980;2023-02-20T08:04:34;99739.72;;;4.57;100.00
64713;BME280;51140;45.340;5.980;2023-02-20T08:06:59;99735.44;;;4.53;100.00
64713;BME280;51140;45.340;5.980;2023-02-20T08:09:25;99733.72;;;4.52;100.00
64713;BME280;51140;45.340;5.980;2023-02-20T08:11:50;99734.53;;;4.66;100.00
64713;BME280;51140;45.340;5.980;2023-02-20T08:14:16;99725.91;;;4.73;100.00
64713;BME280;51140;45.340;5.980;2023-02-20T08:16:41;99712.16;;;4.68;100.00
64713;BME280;51140;45.340;5.980;2023-02-20T08:19:06;99715.56;;;4.71;100.00
64713;BME280;51140;45.340;5.980;2023-02-20T08:21:32;99710.44;;;4.62;100.00
64713;BME280;51140;45.340;5.980;2023-02-20T08:23:57;99721.63;;;4.67;100.00
64713;BME280;51140;45.340;5.980;2023-02-20T08:26:23;99722.50;;;4.62;100.00
64713;BME280;51140;45.340;5.980;2023-02-20T08:28:49;99722.44;;;4.74;100.00
64713;BME280;51140;45.340;5.980;2023-02-20T08:31:15;99712.97;;;4.76;100.00
64713;BME280;51140;45.340;5.980;2023-02-20T08:33:40;99712.97;;;4.85;100.00
64713;BME280;51140;45.340;5.980;2023-02-20T08:36:06;99714.66;;;4.91;100.00
64713;BME280;51140;45.340;5.980;2023-02-20T08:38:34;99712.94;;;4.93;100.00
64713;BME280;51140;45.340;5.980;2023-02-20T08:41:06;99720.66;;;4.97;100.00
64713;BME280;51140;45.340;5.980;2023-02-20T08:43:36;99716.38;;;4.95;100.00
64713;BME280;51140;45.340;5.980;2023-02-20T08:46:05;99718.13;;;4.88;100.00
64713;BME280;51140;45.340;5.980;2023-02-20T08:48:32;99729.31;;;4.87;100.00
64713;BME280;51140;45.340;5.980;2023-02-20T08:50:58;99733.56;;;4.99;100.00
64713;BME280;51140;45.340;5.980;2023-02-20T08:53:23;99734.38;;;5.12;100.00
64713;BME280;51140;45.340;5.980;2023-02-20T08:55:49;99721.47;;;5.07;100.00
64713;BME280;51140;45.340;5.980;2023-02-20T08:58:18;99714.53;;;5.17;100.00
64713;BME280;51140;45.340;5.980;2023-02-20T09:00:44;99709.34;;;5.24;100.00
64713;BME280;51140;45.340;5.980;2023-02-20T09:03:09;99698.22;;;5.09;100.00
64713;BME280;51140;45.340;5.980;2023-02-20T09:05:35;99701.59;;;5.20;100.00
64713;BME280;51140;45.340;5.980;2023-02-20T09:08:00;99698.13;;;5.30;100.00
64713;BME280;51140;45.340;5.980;2023-02-20T09:10:26;99685.16;;;5.36;100.00
64713;BME280;51140;45.340;5.980;2023-02-20T09:12:52;99679.97;;;5.39;100.00
64713;BME280;51140;45.340;5.980;2023-02-20T09:15:17;99685.13;;;5.42;100.00
64713;BME280;51140;45.340;5.980;2023-02-20T09:17:44;99668.75;;;5.43;100.00
64713;BME280;51140;45.340;5.980;2023-02-20T09:20:10;99654.09;;;5.42;100.00
64713;BME280;51140;45.340;5.980;2023-02-20T09:22:36;99644.63;;;5.44;100.00
64713;BME280;51140;45.340;5.980;2023-02-20T09:25:02;99643.72;;;5.48;100.00
64713;BME280;51140;45.340;5.980;2023-02-20T09:27:29;99638.53;;;5.53;100.00
64713;BME280;51140;45.340;5.980;2023-02-20T09:29:54;99635.88;;;5.59;100.00
64713;BME280;51140;45.340;5.980;2023-02-20T09:32:20;99620.38;;;5.63;100.00
64713;BME280;51140;45.340;5.980;2023-02-20T09:34:45;99614.28;;;5.68;100.00
64713;BME280;51140;45.340;5.980;2023-02-20T09:37:10;99608.22;;;5.73;100.00
64713;BME280;51140;45.340;5.980;2023-02-20T09:39:36;99594.31;;;5.83;100.00
64713;BME280;51140;45.340;5.980;2023-02-20T09:47:19;99570.03;;;6.00;100.00
64713;BME280;51140;45.340;5.980;2023-02-20T09:49:47;99559.56;;;6.13;100.00
64713;BME280;51140;45.340;5.980;2023-02-20T09:52:15;99545.59;;;6.26;100.00
64713;BME280;51140;45.340;5.980;2023-02-20T09:54:46;99535.03;;;6.45;100.00
64713;BME280;51140;45.340;5.980;2023-02-20T09:57:21;99494.16;;;6.67;100.00
64713;BME280;51140;45.340;5.980;2023-02-20T09:59:51;99452.06;;;7.08;100.00
64713;BME280;51140;45.340;5.980;2023-02-20T10:02:41;99379.38;;;7.62;100.00
64713;BME280;51140;45.340;5.980;2023-02-20T10:05:27;99280.91;;;8.33;100.00
64713;BME280;51140;45.340;5.980;2023-02-20T10:07:54;99181.72;;;8.87;100.00
64713;BME280;51140;45.340;5.980;2023-02-20T10:10:26;99092.97;;;9.28;100.00
64713;BME280;51140;45.340;5.980;2023-02-20T10:21:15;98811.56;;;10.78;100.00
64713;BME280;51140;45.340;5.980;2023-02-20T10:26:19;98789.31;;;10.91;100.00
64713;BME280;51140;45.340;5.980;2023-02-20T10:28:48;98748.03;;;11.40;100.00
64713;BME280;51140;45.340;5.980;2023-02-20T10:31:36;98710.66;;;11.77;100.00
64713;BME280;51140;45.340;5.980;2023-02-20T10:34:23;98699.66;;;11.89;100.00
64713;BME280;51140;45.340;5.980;2023-02-20T10:36:56;98696.16;;;12.07;100.00
64713;BME280;51140;45.340;5.980;2023-02-20T10:39:27;98712.94;;;11.66;100.00
64713;BME280;51140;45.340;5.980;2023-02-20T10:42:06;98708.47;;;12.05;100.00
64713;BME280;51140;45.340;5.980;2023-02-20T10:44:40;98704.78;;;12.09;100.00
64713;BME280;51140;45.340;5.980;2023-02-20T10:47:15;98714.16;;;12.13;100.00
64713;BME280;51140;45.340;5.980;2023-02-20T10:52:28;98676.44;;;12.53;100.00
64713;BME280;51140;45.340;5.980;2023-02-20T10:55:06;98669.28;;;12.90;100.00
64713;BME280;51140;45.340;5.980;2023-02-20T10:57:39;98670.41;;;13.02;100.00
64713;BME280;51140;45.340;5.980;2023-02-20T11:00:19;98668.81;;;12.99;100.00
64713;BME280;51140;45.340;5.980;2023-02-20T11:02:55;98669.06;;;13.10;100.00
64713;BME280;51140;45.340;5.980;2023-02-20T11:05:24;98665.44;;;12.80;100.00
64713;BME280;51140;45.340;5.980;2023-02-20T11:07:50;98666.59;;;12.92;100.00
64713;BME280;51140;45.340;5.980;2023-02-20T11:10:17;98682.13;;;12.77;100.00
64713;BME280;51140;45.340;5.980;2023-02-20T11:12:56;98672.78;;;13.06;100.00
64713;BME280;51140;45.340;5.980;2023-02-20T11:15:28;98669.66;;;13.15;100.00
64713;BME280;51140;45.340;5.980;2023-02-20T11:17:55;98681.03;;;12.99;100.00
64713;BME280;51140;45.340;5.980;2023-02-20T11:23:00;98679.69;;;12.92;100.00
64713;BME280;51140;45.340;5.980;2023-02-20T11:25:27;98669.56;;;12.68;100.00
64713;BME280;51140;45.340;5.980;2023-02-20T11:27:56;98666.63;;;12.74;100.00
64713;BME280;51140;45.340;5.980;2023-02-20T11:30:31;98659.19;;;13.00;100.00
64713;BME280;51140;45.340;5.980;2023-02-20T11:33:00;98656.75;;;13.12;100.00
64713;BME280;51140;45.340;5.980;2023-02-20T11:35:30;98660.19;;;12.97;100.00
64713;BME280;51140;45.340;5.980;2023-02-20T11:38:23;98664.06;;;13.23;100.00
64713;BME280;51140;45.340;5.980;2023-02-20T11:43:26;98681.63;;;13.21;100.00
64713;BME280;51140;45.340;5.980;2023-02-20T11:46:17;98686.59;;;13.26;100.00
64713;BME280;51140;45.340;5.980;2023-02-20T11:49:27;98667.88;;;13.65;100.00
64713;BME280;51140;45.340;5.980;2023-02-20T11:52:12;98678.06;;;13.85;100.00
64713;BME280;51140;45.340;5.980;2023-02-20T11:54:39;98669.94;;;14.05;100.00
64713;BME280;51140;45.340;5.980;2023-02-20T11:57:29;98658.28;;;14.25;100.00
64713;BME280;51140;45.340;5.980;2023-02-20T12:05:39;98679.22;;;14.99;100.00
64713;BME280;51140;45.340;5.980;2023-02-20T12:11:04;98684.63;;;14.68;100.00
64713;BME280;51140;45.340;5.980;2023-02-20T12:13:36;98679.09;;;14.72;100.00
64713;BME280;51140;45.340;5.980;2023-02-20T12:26:50;98697.13;;;14.19;100.00
64713;BME280;51140;45.340;5.980;2023-02-20T12:32:19;98692.03;;;13.70;100.00
64713;BME280;51140;45.340;5.980;2023-02-20T12:35:30;98667.03;;;13.64;100.00
64713;BME280;51140;45.340;5.980;2023-02-20T12:54:26;98643.84;;;13.88;100.00
64713;BME280;51140;45.340;5.980;2023-02-20T13:02:19;98610.19;;;14.26;100.00
64713;BME280;51140;45.340;5.980;2023-02-20T13:04:56;98632.34;;;14.06;100.00
64713;BME280;51140;45.340;5.980;2023-02-20T13:12:30;98650.84;;;14.03;100.00
64713;BME280;51140;45.340;5.980;2023-02-20T13:18:16;98602.03;;;14.17;100.00
64713;BME280;51140;45.340;5.980;2023-02-20T13:20:49;98585.94;;;14.23;100.00
64713;BME280;51140;45.340;5.980;2023-02-20T13:25:45;98576.41;;;14.36;100.00
64713;BME280;51140;45.340;5.980;2023-02-20T13:30:37;98606.72;;;14.26;100.00
64713;BME280;51140;45.340;5.980;2023-02-20T13:33:22;98601.47;;;14.26;100.00
64713;BME280;51140;45.340;5.980;2023-02-20T13:35:54;98595.09;;;14.16;100.00
64713;BME280;51140;45.340;5.980;2023-02-20T13:38:22;98594.09;;;14.18;100.00
64713;BME280;51140;45.340;5.980;2023-02-20T13:46:08;98553.00;;;14.33;100.00
64713;BME280;51140;45.340;5.980;2023-02-20T13:56:26;98568.78;;;14.47;100.00
64713;BME280;51140;45.340;5.980;2023-02-20T13:58:56;98587.53;;;14.39;100.00
64713;BME280;51140;45.340;5.980;2023-02-20T14:01:22;98550.34;;;14.49;100.00
64713;BME280;51140;45.340;5.980;2023-02-20T14:04:02;98549.41;;;14.64;100.00
64713;BME280;51140;45.340;5.980;2023-02-20T14:06:27;98548.75;;;14.60;100.00
64713;BME280;51140;45.340;5.980;2023-02-20T14:09:07;98517.91;;;14.78;100.00
64713;BME280;51140;45.340;5.980;2023-02-20T14:11:36;98510.97;;;14.91;100.00
64713;BME280;51140;45.340;5.980;2023-02-20T14:14:09;98526.72;;;14.91;100.00
64713;BME280;51140;45.340;5.980;2023-02-20T14:16:38;98532.25;;;14.87;100.00
64713;BME280;51140;45.340;5.980;2023-02-20T14:19:26;98572.97;;;14.78;100.00
64713;BME280;51140;45.340;5.980;2023-02-20T14:21:53;98563.25;;;14.80;100.00
64713;BME280;51140;45.340;5.980;2023-02-20T14:24:22;98558.94;;;14.79;100.00
64713;BME280;51140;45.340;5.980;2023-02-20T14:26:48;98561.00;;;14.74;100.00
64713;BME280;51140;45.340;5.980;2023-02-20T14:29:33;98525.50;;;14.83;100.00
64713;BME280;51140;45.340;5.980;2023-02-20T14:32:00;98510.69;;;14.96;100.00
64713;BME280;51140;45.340;5.980;2023-02-20T14:37:15;98525.38;;;14.98;100.00
64713;BME280;51140;45.340;5.980;2023-02-20T14:42:22;98561.47;;;14.81;100.00
64713;BME280;51140;45.340;5.980;2023-02-20T14:44:49;98554.63;;;14.78;100.00
64713;BME280;51140;45.340;5.980;2023-02-20T14:47:17;98580.38;;;14.71;100.00
64713;BME280;51140;45.340;5.980;2023-02-20T14:49:43;98574.03;;;14.61;100.00
64713;BME280;51140;45.340;5.980;2023-02-20T14:54:34;98550.69;;;14.71;100.00
64713;BME280;51140;45.340;5.980;2023-02-20T14:57:00;98557.47;;;14.61;100.00
64713;BME280;51140;45.340;5.980;2023-02-20T14:59:33;98564.00;;;14.54;100.00
64713;BME280;51140;45.340;5.980;2023-02-20T15:02:13;98563.56;;;14.47;100.00
64713;BME280;51140;45.340;5.980;2023-02-20T15:04:54;98531.97;;;14.63;100.00
64713;BME280;51140;45.340;5.980;2023-02-20T15:07:23;98510.06;;;14.64;100.00
64713;BME280;51140;45.340;5.980;2023-02-20T15:09:53;98516.22;;;14.77;100.00
64713;BME280;51140;45.340;5.980;2023-02-20T15:12:20;98553.81;;;14.63;100.00
64713;BME280;51140;45.340;5.980;2023-02-20T15:14:53;98549.41;;;14.64;100.00
64713;BME280;51140;45.340;5.980;2023-02-20T15:17:24;98552.88;;;14.50;100.00
64713;BME280;51140;45.340;5.980;2023-02-20T15:19:50;98508.59;;;14.60;100.00
64713;BME280;51140;45.340;5.980;2023-02-20T15:24:49;98521.31;;;14.66;100.00
64713;BME280;51140;45.340;5.980;2023-02-20T15:27:19;98523.38;;;14.61;100.00